sensor_id;sensor_type;location;lat;lon;timestamp;P1;durP1;ratioP1;P2;durP2;ratioP2
41966;SDS011;27656;53.068;8.818;2023-07-29T00:00:01;19.53;;;13.27;;
41966;SDS011;27656;53.068;8.818;2023-07-29T00:02:27;18.97;;;12.20;;
41966;SDS011;27656;53.068;8.818;2023-07-29T00:04:57;15.43;;;12.97;;
41966;SDS011;27656;53.068;8.818;2023-07-29T00:07:23;18.03;;;13.20;;
41966;SDS011;27656;53.068;8.818;2023-07-29T00:09:50;18.80;;;12.80;;
41966;SDS011;27656;53.068;8.818;2023-07-29T00:12:16;17.60;;;13.67;;
41966;SDS011;27656;53.068;8.818;2023-07-29T00:14:43;19.07;;;13.97;;
41966;SDS011;27656;53.068;8.818;2023-07-29T00:17:09;15.80;;;12.83;;
41966;SDS011;27656;53.068;8.818;2023-07-29T00:19:35;17.00;;;12.63;;
41966;SDS011;27656;53.068;8.818;2023-07-29T00:22:02;15.37;;;11.20;;
41966;SDS011;27656;53.068;8.818;2023-07-29T00:24:29;16.83;;;12.00;;
41966;SDS011;27656;53.068;8.818;2023-07-29T00:26:55;16.63;;;11.70;;
41966;SDS011;27656;53.068;8.818;2023-07-29T00:29:22;13.43;;;10.07;;
41966;SDS011;27656;53.068;8.818;2023-07-29T00:31:48;15.40;;;12.03;;
41966;SDS011;27656;53.068;8.818;2023-07-29T00:34:15;16.80;;;13.00;;
41966;SDS011;27656;53.068;8.818;2023-07-29T00:36:45;15.20;;;10.93;;
41966;SDS011;27656;53.068;8.818;2023-07-29T00:39:12;15.83;;;11.37;;
41966;SDS011;27656;53.068;8.818;2023-07-29T00:41:39;14.63;;;11.53;;
41966;SDS011;27656;53.068;8.818;2023-07-29T00:44:06;13.67;;;10.30;;
41966;SDS011;27656;53.068;8.818;2023-07-29T00:46:33;17.27;;;12.20;;
41966;SDS011;27656;53.068;8.818;2023-07-29T00:49:01;19.80;;;13.63;;
41966;SDS011;27656;53.068;8.818;2023-07-29T00:51:28;16.60;;;12.67;;
41966;SDS011;27656;53.068;8.818;2023-07-29T00:53:54;19.20;;;12.87;;
41966;SDS011;27656;53.068;8.818;2023-07-29T00:56:21;19.87;;;13.13;;
41966;SDS011;27656;53.068;8.818;2023-07-29T00:58:47;15.60;;;11.90;;
41966;SDS011;27656;53.068;8.818;2023-07-29T01:03:49;17.73;;;11.90;;
41966;SDS011;27656;53.068;8.818;2023-07-29T01:06:46;17.43;;;12.33;;
41966;SDS011;27656;53.068;8.818;2023-07-29T01:09:34;16.17;;;11.00;;
41966;SDS011;27656;53.068;8.818;2023-07-29T01:14:39;18.20;;;12.30;;
41966;SDS011;27656;53.068;8.818;2023-07-29T01:17:13;18.43;;;12.47;;
41966;SDS011;27656;53.068;8.818;2023-07-29T01:19:55;14.77;;;11.40;;
41966;SDS011;27656;53.068;8.818;2023-07-29T01:22:27;19.33;;;12.70;;
41966;SDS011;27656;53.068;8.818;2023-07-29T01:24:53;16.40;;;13.10;;
41966;SDS011;27656;53.068;8.818;2023-07-29T01:27:20;16.80;;;12.27;;
41966;SDS011;27656;53.068;8.818;2023-07-29T01:29:46;17.60;;;13.63;;
41966;SDS011;27656;53.068;8.818;2023-07-29T01:32:17;24.40;;;14.60;;
41966;SDS011;27656;53.068;8.818;2023-07-29T01:37:26;22.80;;;15.37;;
41966;SDS011;27656;53.068;8.818;2023-07-29T01:39:56;21.13;;;13.77;;
41966;SDS011;27656;53.068;8.818;2023-07-29T01:42:23;21.00;;;13.83;;
41966;SDS011;27656;53.068;8.818;2023-07-29T01:44:52;20.03;;;15.00;;
41966;SDS011;27656;53.068;8.818;2023-07-29T01:47:20;19.13;;;15.33;;
41966;SDS011;27656;53.068;8.818;2023-07-29T01:49:48;22.30;;;15.00;;
41966;SDS011;27656;53.068;8.818;2023-07-29T01:52:14;22.27;;;16.23;;
41966;SDS011;27656;53.068;8.818;2023-07-29T01:54:41;19.10;;;14.40;;
41966;SDS011;27656;53.068;8.818;2023-07-29T01:57:07;18.03;;;13.67;;
41966;SDS011;27656;53.068;8.818;2023-07-29T01:59:34;23.87;;;15.13;;
41966;SDS011;27656;53.068;8.818;2023-07-29T02:02:01;26.50;;;17.33;;
41966;SDS011;27656;53.068;8.818;2023-07-29T02:04:27;25.40;;;16.03;;
41966;SDS011;27656;53.068;8.818;2023-07-29T02:06:54;22.17;;;16.23;;
41966;SDS011;27656;53.068;8.818;2023-07-29T02:09:21;21.87;;;15.83;;
41966;SDS011;27656;53.068;8.818;2023-07-29T02:11:47;21.83;;;14.77;;
41966;SDS011;27656;53.068;8.818;2023-07-29T02:14:14;27.13;;;16.90;;
41966;SDS011;27656;53.068;8.818;2023-07-29T02:16:40;28.13;;;16.50;;
41966;SDS011;27656;53.068;8.818;2023-07-29T02:19:08;28.50;;;17.07;;
41966;SDS011;27656;53.068;8.818;2023-07-29T02:21:34;25.40;;;16.83;;
41966;SDS011;27656;53.068;8.818;2023-07-29T02:24:01;22.97;;;16.13;;
41966;SDS011;27656;53.068;8.818;2023-07-29T02:26:27;24.13;;;17.00;;
41966;SDS011;27656;53.068;8.818;2023-07-29T02:28:54;25.00;;;15.67;;
41966;SDS011;27656;53.068;8.818;2023-07-29T02:31:21;29.43;;;17.17;;
41966;SDS011;27656;53.068;8.818;2023-07-29T02:33:49;25.80;;;15.87;;
41966;SDS011;27656;53.068;8.818;2023-07-29T02:36:15;29.13;;;16.70;;
41966;SDS011;27656;53.068;8.818;2023-07-29T02:38:42;28.40;;;17.20;;
41966;SDS011;27656;53.068;8.818;2023-07-29T02:41:10;23.63;;;16.83;;
41966;SDS011;27656;53.068;8.818;2023-07-29T02:43:38;39.23;;;15.87;;
41966;SDS011;27656;53.068;8.818;2023-07-29T02:46:06;32.70;;;16.60;;
41966;SDS011;27656;53.068;8.818;2023-07-29T02:48:32;26.27;;;15.90;;
41966;SDS011;27656;53.068;8.818;2023-07-29T02:50:59;26.87;;;17.13;;
41966;SDS011;27656;53.068;8.818;2023-07-29T02:53:25;26.87;;;17.10;;
41966;SDS011;27656;53.068;8.818;2023-07-29T02:55:53;23.87;;;14.27;;
41966;SDS011;27656;53.068;8.818;2023-07-29T02:58:20;21.87;;;15.20;;
41966;SDS011;27656;53.068;8.818;2023-07-29T03:00:46;22.90;;;14.77;;
41966;SDS011;27656;53.068;8.818;2023-07-29T03:03:14;25.60;;;15.73;;
41966;SDS011;27656;53.068;8.818;2023-07-29T03:05:41;21.70;;;15.60;;
41966;SDS011;27656;53.068;8.818;2023-07-29T03:08:08;18.30;;;13.97;;
41966;SDS011;27656;53.068;8.818;2023-07-29T03:10:35;24.80;;;16.27;;
41966;SDS011;27656;53.068;8.818;2023-07-29T03:13:02;32.50;;;18.07;;
41966;SDS011;27656;53.068;8.818;2023-07-29T03:15:29;29.67;;;18.00;;
41966;SDS011;27656;53.068;8.818;2023-07-29T03:17:55;32.93;;;18.00;;
41966;SDS011;27656;53.068;8.818;2023-07-29T03:20:22;29.07;;;18.70;;
41966;SDS011;27656;53.068;8.818;2023-07-29T03:22:48;29.17;;;19.27;;
41966;SDS011;27656;53.068;8.818;2023-07-29T03:25:15;26.97;;;18.10;;
41966;SDS011;27656;53.068;8.818;2023-07-29T03:27:41;30.40;;;19.23;;
41966;SDS011;27656;53.068;8.818;2023-07-29T03:30:08;29.10;;;19.47;;
41966;SDS011;27656;53.068;8.818;2023-07-29T03:32:35;31.67;;;18.67;;
41966;SDS011;27656;53.068;8.818;2023-07-29T03:35:02;28.73;;;16.50;;
41966;SDS011;27656;53.068;8.818;2023-07-29T03:37:28;31.97;;;19.47;;
41966;SDS011;27656;53.068;8.818;2023-07-29T03:39:55;31.53;;;19.47;;
41966;SDS011;27656;53.068;8.818;2023-07-29T03:42:21;31.60;;;19.87;;
41966;SDS011;27656;53.068;8.818;2023-07-29T03:44:48;28.47;;;20.07;;
41966;SDS011;27656;53.068;8.818;2023-07-29T03:47:14;31.80;;;20.20;;
41966;SDS011;27656;53.068;8.818;2023-07-29T03:49:41;27.87;;;18.97;;
41966;SDS011;27656;53.068;8.818;2023-07-29T03:52:07;27.93;;;19.43;;
41966;SDS011;27656;53.068;8.818;2023-07-29T03:54:34;28.07;;;19.57;;
41966;SDS011;27656;53.068;8.818;2023-07-29T03:57:00;27.80;;;18.20;;
41966;SDS011;27656;53.068;8.818;2023-07-29T03:59:27;32.23;;;19.30;;
41966;SDS011;27656;53.068;8.818;2023-07-29T04:01:53;30.63;;;19.17;;
41966;SDS011;27656;53.068;8.818;2023-07-29T04:04:20;30.33;;;19.67;;
41966;SDS011;27656;53.068;8.818;2023-07-29T04:06:47;27.30;;;17.07;;
41966;SDS011;27656;53.068;8.818;2023-07-29T04:09:13;26.43;;;18.40;;
41966;SDS011;27656;53.068;8.818;2023-07-29T04:11:40;27.73;;;18.33;;
41966;SDS011;27656;53.068;8.818;2023-07-29T04:14:06;34.67;;;18.83;;
41966;SDS011;27656;53.068;8.818;2023-07-29T04:16:33;28.97;;;18.33;;
41966;SDS011;27656;53.068;8.818;2023-07-29T04:18:59;29.10;;;18.63;;
41966;SDS011;27656;53.068;8.818;2023-07-29T04:21:26;25.33;;;17.73;;
41966;SDS011;27656;53.068;8.818;2023-07-29T04:23:52;24.20;;;17.83;;
41966;SDS011;27656;53.068;8.818;2023-07-29T04:26:19;27.37;;;18.53;;
41966;SDS011;27656;53.068;8.818;2023-07-29T04:28:45;27.07;;;17.93;;
41966;SDS011;27656;53.068;8.818;2023-07-29T04:31:12;23.67;;;16.77;;
41966;SDS011;27656;53.068;8.818;2023-07-29T04:33:38;26.20;;;18.63;;
41966;SDS011;27656;53.068;8.818;2023-07-29T04:36:05;30.53;;;19.13;;
41966;SDS011;27656;53.068;8.818;2023-07-29T04:38:32;26.50;;;18.53;;
41966;SDS011;27656;53.068;8.818;2023-07-29T04:40:59;32.90;;;18.70;;
41966;SDS011;27656;53.068;8.818;2023-07-29T04:43:29;28.40;;;18.00;;
41966;SDS011;27656;53.068;8.818;2023-07-29T04:45:57;28.37;;;18.97;;
41966;SDS011;27656;53.068;8.818;2023-07-29T04:48:23;26.67;;;18.77;;
41966;SDS011;27656;53.068;8.818;2023-07-29T04:50:50;27.87;;;17.37;;
41966;SDS011;27656;53.068;8.818;2023-07-29T04:53:16;31.30;;;19.33;;
41966;SDS011;27656;53.068;8.818;2023-07-29T04:55:43;29.13;;;18.40;;
41966;SDS011;27656;53.068;8.818;2023-07-29T04:58:10;25.50;;;17.00;;
41966;SDS011;27656;53.068;8.818;2023-07-29T05:00:36;25.40;;;18.63;;
41966;SDS011;27656;53.068;8.818;2023-07-29T05:03:03;24.70;;;17.33;;
41966;SDS011;27656;53.068;8.818;2023-07-29T05:05:29;21.83;;;16.60;;
41966;SDS011;27656;53.068;8.818;2023-07-29T05:07:56;24.70;;;17.73;;
41966;SDS011;27656;53.068;8.818;2023-07-29T05:10:22;20.87;;;16.77;;
41966;SDS011;27656;53.068;8.818;2023-07-29T05:12:49;25.77;;;16.53;;
41966;SDS011;27656;53.068;8.818;2023-07-29T05:15:15;22.43;;;16.27;;
41966;SDS011;27656;53.068;8.818;2023-07-29T05:17:42;26.37;;;16.23;;
41966;SDS011;27656;53.068;8.818;2023-07-29T05:20:09;23.93;;;16.30;;
41966;SDS011;27656;53.068;8.818;2023-07-29T05:22:35;24.00;;;15.23;;
41966;SDS011;27656;53.068;8.818;2023-07-29T05:25:02;18.60;;;14.57;;
41966;SDS011;27656;53.068;8.818;2023-07-29T05:27:28;18.13;;;13.87;;
41966;SDS011;27656;53.068;8.818;2023-07-29T05:29:55;16.97;;;13.53;;
41966;SDS011;27656;53.068;8.818;2023-07-29T05:32:21;16.73;;;12.53;;
41966;SDS011;27656;53.068;8.818;2023-07-29T05:34:48;19.03;;;11.97;;
41966;SDS011;27656;53.068;8.818;2023-07-29T05:37:15;16.00;;;12.03;;
41966;SDS011;27656;53.068;8.818;2023-07-29T05:39:41;16.40;;;11.73;;
41966;SDS011;27656;53.068;8.818;2023-07-29T05:42:07;14.97;;;10.53;;
41966;SDS011;27656;53.068;8.818;2023-07-29T05:44:34;18.27;;;11.03;;
41966;SDS011;27656;53.068;8.818;2023-07-29T05:47:01;15.17;;;11.77;;
41966;SDS011;27656;53.068;8.818;2023-07-29T05:49:27;17.40;;;10.67;;
41966;SDS011;27656;53.068;8.818;2023-07-29T05:51:54;14.60;;;11.30;;
41966;SDS011;27656;53.068;8.818;2023-07-29T05:54:20;14.93;;;11.53;;
41966;SDS011;27656;53.068;8.818;2023-07-29T05:56:47;16.07;;;11.00;;
41966;SDS011;27656;53.068;8.818;2023-07-29T05:59:13;17.83;;;11.07;;
41966;SDS011;27656;53.068;8.818;2023-07-29T06:01:40;17.30;;;11.53;;
41966;SDS011;27656;53.068;8.818;2023-07-29T06:04:06;18.20;;;11.40;;
41966;SDS011;27656;53.068;8.818;2023-07-29T06:06:33;16.97;;;11.63;;
41966;SDS011;27656;53.068;8.818;2023-07-29T06:09:00;17.77;;;11.33;;
41966;SDS011;27656;53.068;8.818;2023-07-29T06:11:26;14.97;;;11.23;;
41966;SDS011;27656;53.068;8.818;2023-07-29T06:13:53;18.73;;;11.70;;
41966;SDS011;27656;53.068;8.818;2023-07-29T06:16:19;14.33;;;11.23;;
41966;SDS011;27656;53.068;8.818;2023-07-29T06:18:46;18.77;;;11.83;;
41966;SDS011;27656;53.068;8.818;2023-07-29T06:21:13;13.47;;;10.60;;
41966;SDS011;27656;53.068;8.818;2023-07-29T06:23:43;15.57;;;12.17;;
41966;SDS011;27656;53.068;8.818;2023-07-29T06:26:10;15.40;;;11.70;;
41966;SDS011;27656;53.068;8.818;2023-07-29T06:28:36;17.27;;;12.93;;
41966;SDS011;27656;53.068;8.818;2023-07-29T06:31:03;14.83;;;12.27;;
41966;SDS011;27656;53.068;8.818;2023-07-29T06:33:29;14.33;;;12.40;;
41966;SDS011;27656;53.068;8.818;2023-07-29T06:35:56;16.40;;;12.37;;
41966;SDS011;27656;53.068;8.818;2023-07-29T06:38:23;15.20;;;13.03;;
41966;SDS011;27656;53.068;8.818;2023-07-29T06:40:49;18.00;;;12.17;;
41966;SDS011;27656;53.068;8.818;2023-07-29T06:43:16;14.93;;;13.33;;
41966;SDS011;27656;53.068;8.818;2023-07-29T06:45:43;15.80;;;13.37;;
41966;SDS011;27656;53.068;8.818;2023-07-29T06:48:09;17.90;;;14.07;;
41966;SDS011;27656;53.068;8.818;2023-07-29T06:50:36;16.53;;;13.40;;
41966;SDS011;27656;53.068;8.818;2023-07-29T06:53:02;18.93;;;14.50;;
41966;SDS011;27656;53.068;8.818;2023-07-29T06:55:29;18.50;;;14.03;;
41966;SDS011;27656;53.068;8.818;2023-07-29T06:57:55;16.23;;;14.10;;
41966;SDS011;27656;53.068;8.818;2023-07-29T07:00:22;16.03;;;13.83;;
41966;SDS011;27656;53.068;8.818;2023-07-29T07:02:48;17.60;;;14.63;;
41966;SDS011;27656;53.068;8.818;2023-07-29T07:05:15;19.00;;;14.43;;
41966;SDS011;27656;53.068;8.818;2023-07-29T07:07:42;16.70;;;13.40;;
41966;SDS011;27656;53.068;8.818;2023-07-29T07:10:08;16.57;;;13.60;;
41966;SDS011;27656;53.068;8.818;2023-07-29T07:12:35;19.00;;;14.50;;
41966;SDS011;27656;53.068;8.818;2023-07-29T07:15:01;15.03;;;13.17;;
41966;SDS011;27656;53.068;8.818;2023-07-29T07:17:28;14.23;;;12.67;;
41966;SDS011;27656;53.068;8.818;2023-07-29T07:19:55;15.37;;;13.17;;
41966;SDS011;27656;53.068;8.818;2023-07-29T07:22:21;17.87;;;13.33;;
41966;SDS011;27656;53.068;8.818;2023-07-29T07:24:48;13.87;;;12.47;;
41966;SDS011;27656;53.068;8.818;2023-07-29T07:27:14;12.80;;;10.97;;
41966;SDS011;27656;53.068;8.818;2023-07-29T07:29:41;12.27;;;10.33;;
41966;SDS011;27656;53.068;8.818;2023-07-29T07:32:07;13.50;;;10.67;;
41966;SDS011;27656;53.068;8.818;2023-07-29T07:34:34;13.73;;;9.83;;
41966;SDS011;27656;53.068;8.818;2023-07-29T07:37:00;11.73;;;9.73;;
41966;SDS011;27656;53.068;8.818;2023-07-29T07:39:27;10.80;;;8.77;;
41966;SDS011;27656;53.068;8.818;2023-07-29T07:41:53;12.03;;;9.20;;
41966;SDS011;27656;53.068;8.818;2023-07-29T07:44:20;11.57;;;8.90;;
41966;SDS011;27656;53.068;8.818;2023-07-29T07:46:47;10.27;;;9.10;;
41966;SDS011;27656;53.068;8.818;2023-07-29T07:49:13;10.27;;;8.80;;
41966;SDS011;27656;53.068;8.818;2023-07-29T07:51:40;9.50;;;8.50;;
41966;SDS011;27656;53.068;8.818;2023-07-29T07:54:06;13.17;;;8.57;;
41966;SDS011;27656;53.068;8.818;2023-07-29T07:56:33;8.93;;;7.93;;
41966;SDS011;27656;53.068;8.818;2023-07-29T07:58:59;12.67;;;7.87;;
41966;SDS011;27656;53.068;8.818;2023-07-29T08:01:26;9.30;;;7.53;;
41966;SDS011;27656;53.068;8.818;2023-07-29T08:03:52;7.93;;;7.13;;
41966;SDS011;27656;53.068;8.818;2023-07-29T08:06:19;13.93;;;7.87;;
41966;SDS011;27656;53.068;8.818;2023-07-29T08:08:46;9.60;;;6.67;;
41966;SDS011;27656;53.068;8.818;2023-07-29T08:11:12;6.87;;;6.10;;
41966;SDS011;27656;53.068;8.818;2023-07-29T08:13:39;9.67;;;6.70;;
41966;SDS011;27656;53.068;8.818;2023-07-29T08:16:05;10.37;;;6.13;;
41966;SDS011;27656;53.068;8.818;2023-07-29T08:18:32;10.47;;;5.97;;
41966;SDS011;27656;53.068;8.818;2023-07-29T08:20:59;6.50;;;5.10;;
41966;SDS011;27656;53.068;8.818;2023-07-29T08:23:30;5.47;;;4.13;;
41966;SDS011;27656;53.068;8.818;2023-07-29T08:25:58;7.20;;;4.40;;
41966;SDS011;27656;53.068;8.818;2023-07-29T08:28:28;4.20;;;3.63;;
41966;SDS011;27656;53.068;8.818;2023-07-29T08:30:56;5.63;;;3.40;;
41966;SDS011;27656;53.068;8.818;2023-07-29T08:33:23;6.10;;;3.30;;
41966;SDS011;27656;53.068;8.818;2023-07-29T08:35:50;5.20;;;2.70;;
41966;SDS011;27656;53.068;8.818;2023-07-29T08:38:16;4.93;;;2.73;;
41966;SDS011;27656;53.068;8.818;2023-07-29T08:40:57;6.37;;;3.03;;
41966;SDS011;27656;53.068;8.818;2023-07-29T08:43:28;3.90;;;2.73;;
41966;SDS011;27656;53.068;8.818;2023-07-29T08:45:59;4.53;;;2.63;;
41966;SDS011;27656;53.068;8.818;2023-07-29T08:48:32;6.37;;;2.50;;
41966;SDS011;27656;53.068;8.818;2023-07-29T08:50:59;2.97;;;2.40;;
41966;SDS011;27656;53.068;8.818;2023-07-29T08:53:28;2.77;;;2.20;;
41966;SDS011;27656;53.068;8.818;2023-07-29T08:55:54;5.07;;;2.73;;
41966;SDS011;27656;53.068;8.818;2023-07-29T08:58:21;3.83;;;2.90;;
41966;SDS011;27656;53.068;8.818;2023-07-29T09:00:48;5.27;;;2.60;;
41966;SDS011;27656;53.068;8.818;2023-07-29T09:03:15;4.40;;;2.80;;
41966;SDS011;27656;53.068;8.818;2023-07-29T09:05:42;3.20;;;2.73;;
41966;SDS011;27656;53.068;8.818;2023-07-29T09:08:09;4.63;;;3.53;;
41966;SDS011;27656;53.068;8.818;2023-07-29T09:10:36;4.83;;;3.13;;
41966;SDS011;27656;53.068;8.818;2023-07-29T09:13:03;8.10;;;3.07;;
41966;SDS011;27656;53.068;8.818;2023-07-29T09:15:31;5.85;;;3.40;;
41966;SDS011;27656;53.068;8.818;2023-07-29T09:17:58;6.07;;;3.43;;
41966;SDS011;27656;53.068;8.818;2023-07-29T09:20:28;4.53;;;3.13;;
41966;SDS011;27656;53.068;8.818;2023-07-29T09:22:55;3.65;;;3.20;;
41966;SDS011;27656;53.068;8.818;2023-07-29T09:25:25;7.68;;;3.13;;
41966;SDS011;27656;53.068;8.818;2023-07-29T09:27:52;4.05;;;2.75;;
41966;SDS011;27656;53.068;8.818;2023-07-29T09:30:21;5.85;;;3.10;;
41966;SDS011;27656;53.068;8.818;2023-07-29T09:32:52;3.90;;;3.47;;
41966;SDS011;27656;53.068;8.818;2023-07-29T09:35:20;5.15;;;3.92;;
41966;SDS011;27656;53.068;8.818;2023-07-29T09:37:47;6.30;;;3.53;;
41966;SDS011;27656;53.068;8.818;2023-07-29T09:40:14;4.22;;;3.33;;
41966;SDS011;27656;53.068;8.818;2023-07-29T09:42:47;7.60;;;2.97;;
41966;SDS011;27656;53.068;8.818;2023-07-29T09:47:47;2.53;;;2.00;;
41966;SDS011;27656;53.068;8.818;2023-07-29T09:50:15;5.55;;;2.22;;
41966;SDS011;27656;53.068;8.818;2023-07-29T09:52:42;2.97;;;2.00;;
41966;SDS011;27656;53.068;8.818;2023-07-29T09:55:10;3.35;;;2.45;;
41966;SDS011;27656;53.068;8.818;2023-07-29T09:57:38;2.72;;;2.30;;
41966;SDS011;27656;53.068;8.818;2023-07-29T10:00:06;3.42;;;2.88;;
41966;SDS011;27656;53.068;8.818;2023-07-29T10:02:41;3.70;;;3.05;;
41966;SDS011;27656;53.068;8.818;2023-07-29T10:05:09;3.90;;;2.60;;
41966;SDS011;27656;53.068;8.818;2023-07-29T10:07:36;2.65;;;2.45;;
41966;SDS011;27656;53.068;8.818;2023-07-29T10:10:03;4.22;;;2.50;;
41966;SDS011;27656;53.068;8.818;2023-07-29T10:12:31;3.63;;;2.60;;
41966;SDS011;27656;53.068;8.818;2023-07-29T10:14:59;4.43;;;2.10;;
41966;SDS011;27656;53.068;8.818;2023-07-29T10:17:30;4.03;;;2.90;;
41966;SDS011;27656;53.068;8.818;2023-07-29T10:19:57;3.10;;;2.63;;
41966;SDS011;27656;53.068;8.818;2023-07-29T10:22:25;3.10;;;2.35;;
41966;SDS011;27656;53.068;8.818;2023-07-29T10:24:56;5.80;;;2.40;;
41966;SDS011;27656;53.068;8.818;2023-07-29T10:27:25;4.65;;;2.63;;
41966;SDS011;27656;53.068;8.818;2023-07-29T10:29:52;2.50;;;2.30;;
41966;SDS011;27656;53.068;8.818;2023-07-29T10:32:23;4.65;;;2.10;;
41966;SDS011;27656;53.068;8.818;2023-07-29T10:34:51;2.53;;;2.08;;
41966;SDS011;27656;53.068;8.818;2023-07-29T10:37:18;2.95;;;2.40;;
41966;SDS011;27656;53.068;8.818;2023-07-29T10:39:52;2.72;;;2.35;;
41966;SDS011;27656;53.068;8.818;2023-07-29T10:42:20;3.30;;;2.05;;
41966;SDS011;27656;53.068;8.818;2023-07-29T10:44:50;2.60;;;2.35;;
41966;SDS011;27656;53.068;8.818;2023-07-29T10:47:21;2.17;;;1.90;;
41966;SDS011;27656;53.068;8.818;2023-07-29T10:49:50;3.17;;;2.10;;
41966;SDS011;27656;53.068;8.818;2023-07-29T10:55:22;3.55;;;2.25;;
41966;SDS011;27656;53.068;8.818;2023-07-29T10:57:51;6.25;;;2.13;;
41966;SDS011;27656;53.068;8.818;2023-07-29T11:00:19;3.70;;;2.40;;
41966;SDS011;27656;53.068;8.818;2023-07-29T11:02:56;4.18;;;2.05;;
41966;SDS011;27656;53.068;8.818;2023-07-29T11:05:26;3.83;;;2.22;;
41966;SDS011;27656;53.068;8.818;2023-07-29T11:07:53;2.30;;;1.90;;
41966;SDS011;27656;53.068;8.818;2023-07-29T11:10:19;2.60;;;1.70;;
41966;SDS011;27656;53.068;8.818;2023-07-29T11:12:48;3.10;;;1.50;;
41966;SDS011;27656;53.068;8.818;2023-07-29T11:15:27;1.67;;;1.58;;
41966;SDS011;27656;53.068;8.818;2023-07-29T11:17:58;2.50;;;1.95;;
41966;SDS011;27656;53.068;8.818;2023-07-29T11:20:26;4.95;;;1.90;;
41966;SDS011;27656;53.068;8.818;2023-07-29T11:22:54;2.33;;;1.65;;
41966;SDS011;27656;53.068;8.818;2023-07-29T11:25:23;3.60;;;1.90;;
41966;SDS011;27656;53.068;8.818;2023-07-29T11:27:51;2.90;;;1.90;;
41966;SDS011;27656;53.068;8.818;2023-07-29T11:30:19;3.30;;;1.67;;
41966;SDS011;27656;53.068;8.818;2023-07-29T11:32:46;2.08;;;1.70;;
41966;SDS011;27656;53.068;8.818;2023-07-29T11:35:14;2.00;;;1.45;;
41966;SDS011;27656;53.068;8.818;2023-07-29T11:37:43;2.30;;;1.70;;
41966;SDS011;27656;53.068;8.818;2023-07-29T11:40:13;3.75;;;1.50;;
41966;SDS011;27656;53.068;8.818;2023-07-29T11:42:45;2.85;;;1.73;;
41966;SDS011;27656;53.068;8.818;2023-07-29T11:45:13;1.58;;;1.40;;
41966;SDS011;27656;53.068;8.818;2023-07-29T11:47:43;2.05;;;1.70;;
41966;SDS011;27656;53.068;8.818;2023-07-29T11:50:10;3.45;;;1.80;;
41966;SDS011;27656;53.068;8.818;2023-07-29T11:52:40;1.90;;;1.55;;
41966;SDS011;27656;53.068;8.818;2023-07-29T11:55:07;2.05;;;1.40;;
41966;SDS011;27656;53.068;8.818;2023-07-29T11:57:35;4.63;;;1.63;;
41966;SDS011;27656;53.068;8.818;2023-07-29T12:00:06;5.00;;;1.60;;
41966;SDS011;27656;53.068;8.818;2023-07-29T12:02:36;3.97;;;1.50;;
41966;SDS011;27656;53.068;8.818;2023-07-29T12:05:04;4.57;;;1.77;;
41966;SDS011;27656;53.068;8.818;2023-07-29T12:07:31;3.00;;;1.60;;
41966;SDS011;27656;53.068;8.818;2023-07-29T12:09:59;1.58;;;1.38;;
41966;SDS011;27656;53.068;8.818;2023-07-29T12:12:26;2.30;;;1.70;;
41966;SDS011;27656;53.068;8.818;2023-07-29T12:14:54;3.08;;;1.60;;
41966;SDS011;27656;53.068;8.818;2023-07-29T12:17:20;2.28;;;1.70;;
41966;SDS011;27656;53.068;8.818;2023-07-29T12:19:47;6.30;;;1.90;;
41966;SDS011;27656;53.068;8.818;2023-07-29T12:22:17;2.33;;;1.58;;
41966;SDS011;27656;53.068;8.818;2023-07-29T12:24:44;2.83;;;1.52;;
41966;SDS011;27656;53.068;8.818;2023-07-29T12:27:11;5.63;;;1.73;;
41966;SDS011;27656;53.068;8.818;2023-07-29T12:29:42;3.60;;;1.50;;
41966;SDS011;27656;53.068;8.818;2023-07-29T12:32:09;4.35;;;1.67;;
41966;SDS011;27656;53.068;8.818;2023-07-29T12:34:37;3.53;;;1.52;;
41966;SDS011;27656;53.068;8.818;2023-07-29T12:37:06;2.20;;;1.55;;
41966;SDS011;27656;53.068;8.818;2023-07-29T12:39:33;4.25;;;1.50;;
41966;SDS011;27656;53.068;8.818;2023-07-29T12:42:01;5.20;;;1.65;;
41966;SDS011;27656;53.068;8.818;2023-07-29T12:44:32;2.35;;;1.38;;
41966;SDS011;27656;53.068;8.818;2023-07-29T12:47:00;3.85;;;1.67;;
41966;SDS011;27656;53.068;8.818;2023-07-29T12:49:27;2.22;;;1.50;;
41966;SDS011;27656;53.068;8.818;2023-07-29T12:51:56;1.80;;;1.30;;
41966;SDS011;27656;53.068;8.818;2023-07-29T12:54:22;2.28;;;1.33;;
41966;SDS011;27656;53.068;8.818;2023-07-29T12:56:49;2.28;;;1.20;;
41966;SDS011;27656;53.068;8.818;2023-07-29T12:59:16;1.50;;;1.17;;
41966;SDS011;27656;53.068;8.818;2023-07-29T13:01:42;5.32;;;1.65;;
41966;SDS011;27656;53.068;8.818;2023-07-29T13:04:09;5.10;;;1.30;;
41966;SDS011;27656;53.068;8.818;2023-07-29T13:06:36;3.35;;;1.40;;
41966;SDS011;27656;53.068;8.818;2023-07-29T13:09:03;4.70;;;1.25;;
41966;SDS011;27656;53.068;8.818;2023-07-29T13:11:31;7.32;;;1.92;;
41966;SDS011;27656;53.068;8.818;2023-07-29T13:13:58;4.07;;;1.80;;
41966;SDS011;27656;53.068;8.818;2023-07-29T13:16:27;4.05;;;1.90;;
41966;SDS011;27656;53.068;8.818;2023-07-29T13:18:54;2.75;;;1.48;;
41966;SDS011;27656;53.068;8.818;2023-07-29T13:21:21;1.92;;;1.35;;
41966;SDS011;27656;53.068;8.818;2023-07-29T13:23:47;2.88;;;1.42;;
41966;SDS011;27656;53.068;8.818;2023-07-29T13:26:14;2.85;;;1.52;;
41966;SDS011;27656;53.068;8.818;2023-07-29T13:28:40;2.58;;;1.55;;
41966;SDS011;27656;53.068;8.818;2023-07-29T13:31:06;1.98;;;1.50;;
41966;SDS011;27656;53.068;8.818;2023-07-29T13:33:33;4.40;;;1.70;;
41966;SDS011;27656;53.068;8.818;2023-07-29T13:36:00;2.75;;;1.50;;
41966;SDS011;27656;53.068;8.818;2023-07-29T13:38:29;2.50;;;1.50;;
41966;SDS011;27656;53.068;8.818;2023-07-29T13:40:56;2.95;;;1.35;;
41966;SDS011;27656;53.068;8.818;2023-07-29T13:43:22;3.17;;;1.40;;
41966;SDS011;27656;53.068;8.818;2023-07-29T13:45:49;2.08;;;1.25;;
41966;SDS011;27656;53.068;8.818;2023-07-29T13:48:17;2.00;;;1.15;;
41966;SDS011;27656;53.068;8.818;2023-07-29T13:50:44;3.22;;;1.42;;
41966;SDS011;27656;53.068;8.818;2023-07-29T13:53:10;5.28;;;1.45;;
41966;SDS011;27656;53.068;8.818;2023-07-29T13:55:37;1.63;;;1.27;;
41966;SDS011;27656;53.068;8.818;2023-07-29T13:58:04;2.28;;;1.48;;
41966;SDS011;27656;53.068;8.818;2023-07-29T14:00:30;2.72;;;1.67;;
41966;SDS011;27656;53.068;8.818;2023-07-29T14:02:57;3.70;;;1.30;;
41966;SDS011;27656;53.068;8.818;2023-07-29T14:05:23;2.42;;;1.55;;
41966;SDS011;27656;53.068;8.818;2023-07-29T14:07:50;3.25;;;1.60;;
41966;SDS011;27656;53.068;8.818;2023-07-29T14:10:16;2.15;;;1.40;;
41966;SDS011;27656;53.068;8.818;2023-07-29T14:12:43;2.97;;;1.58;;
41966;SDS011;27656;53.068;8.818;2023-07-29T14:15:09;2.47;;;1.50;;
41966;SDS011;27656;53.068;8.818;2023-07-29T14:17:36;2.17;;;1.20;;
41966;SDS011;27656;53.068;8.818;2023-07-29T14:20:02;3.40;;;1.40;;
41966;SDS011;27656;53.068;8.818;2023-07-29T14:22:31;2.03;;;1.13;;
41966;SDS011;27656;53.068;8.818;2023-07-29T14:24:57;3.78;;;1.35;;
41966;SDS011;27656;53.068;8.818;2023-07-29T14:27:26;3.10;;;1.40;;
41966;SDS011;27656;53.068;8.818;2023-07-29T14:29:52;2.25;;;1.42;;
41966;SDS011;27656;53.068;8.818;2023-07-29T14:32:19;2.03;;;1.60;;
41966;SDS011;27656;53.068;8.818;2023-07-29T14:34:48;4.00;;;1.40;;
41966;SDS011;27656;53.068;8.818;2023-07-29T14:37:15;2.90;;;1.40;;
41966;SDS011;27656;53.068;8.818;2023-07-29T14:39:41;2.13;;;1.48;;
41966;SDS011;27656;53.068;8.818;2023-07-29T14:42:08;3.40;;;1.90;;
41966;SDS011;27656;53.068;8.818;2023-07-29T14:44:35;3.58;;;1.50;;
41966;SDS011;27656;53.068;8.818;2023-07-29T14:47:01;2.17;;;1.50;;